sensor_id;sensor_type;location;lat;lon;timestamp;temperature;humidity
10662;DHT22;5379;51.034;7.006;2023-10-13T04:32:36;21.20;99.90
10662;DHT22;5379;51.034;7.006;2023-10-13T04:35:07;21.20;99.90
10662;DHT22;5379;51.034;7.006;2023-10-13T04:37:43;21.20;99.90
10662;DHT22;5379;51.034;7.006;2023-10-13T04:40:20;21.30;99.90
10662;DHT22;5379;51.034;7.006;2023-10-13T04:42:50;21.30;99.90
10662;DHT22;5379;51.034;7.006;2023-10-13T04:45:19;21.40;99.90
10662;DHT22;5379;51.034;7.006;2023-10-13T04:48:06;21.30;99.90
10662;DHT22;5379;51.034;7.006;2023-10-13T04:50:59;21.20;99.90
10662;DHT22;5379;51.034;7.006;2023-10-13T04:53:40;21.20;99.90
10662;DHT22;5379;51.034;7.006;2023-10-13T04:56:21;21.30;99.90
10662;DHT22;5379;51.034;7.006;2023-10-13T04:59:05;21.30;99.90
10662;DHT22;5379;51.034;7.006;2023-10-13T05:02:01;21.30;99.90
10662;DHT22;5379;51.034;7.006;2023-10-13T05:04:43;21.20;99.90
10662;DHT22;5379;51.034;7.006;2023-10-13T05:07:35;21.40;99.90
10662;DHT22;5379;51.034;7.006;2023-10-13T05:10:19;21.30;99.90
10662;DHT22;5379;51.034;7.006;2023-10-13T05:13:04;21.20;99.90
10662;DHT22;5379;51.034;7.006;2023-10-13T05:15:49;21.30;99.90
10662;DHT22;5379;51.034;7.006;2023-10-13T05:18:34;21.30;99.90
10662;DHT22;5379;51.034;7.006;2023-10-13T05:21:34;21.30;99.90
10662;DHT22;5379;51.034;7.006;2023-10-13T05:24:18;21.40;99.90
10662;DHT22;5379;51.034;7.006;2023-10-13T05:27:03;21.30;99.90
10662;DHT22;5379;51.034;7.006;2023-10-13T05:29:47;21.30;99.90
10662;DHT22;5379;51.034;7.006;2023-10-13T05:32:32;21.30;99.90
10662;DHT22;5379;51.034;7.006;2023-10-13T05:35:19;21.70;99.90
10662;DHT22;5379;51.034;7.006;2023-10-13T05:38:05;21.50;99.90
10662;DHT22;5379;51.034;7.006;2023-10-13T05:40:53;21.50;99.90
10662;DHT22;5379;51.034;7.006;2023-10-13T05:43:37;21.60;99.90
10662;DHT22;5379;51.034;7.006;2023-10-13T05:46:22;21.60;99.90
10662;DHT22;5379;51.034;7.006;2023-10-13T05:49:07;21.70;99.90
10662;DHT22;5379;51.034;7.006;2023-10-13T05:51:55;21.60;99.90
10662;DHT22;5379;51.034;7.006;2023-10-13T05:54:26;21.50;99.90
10662;DHT22;5379;51.034;7.006;2023-10-13T05:57:11;21.50;99.90
10662;DHT22;5379;51.034;7.006;2023-10-13T06:00:00;21.50;99.90
10662;DHT22;5379;51.034;7.006;2023-10-13T06:02:44;21.60;99.90
10662;DHT22;5379;51.034;7.006;2023-10-13T06:05:28;21.60;99.90
10662;DHT22;5379;51.034;7.006;2023-10-13T06:08:13;21.60;99.90
10662;DHT22;5379;51.034;7.006;2023-10-13T06:11:02;21.60;99.90
10662;DHT22;5379;51.034;7.006;2023-10-13T06:13:47;21.60;99.90
10662;DHT22;5379;51.034;7.006;2023-10-13T06:16:31;21.60;99.90
10662;DHT22;5379;51.034;7.006;2023-10-13T06:19:27;21.70;99.90
10662;DHT22;5379;51.034;7.006;2023-10-13T06:22:11;21.80;99.90
10662;DHT22;5379;51.034;7.006;2023-10-13T06:24:55;21.80;99.90
10662;DHT22;5379;51.034;7.006;2023-10-13T06:27:40;21.70;99.90
10662;DHT22;5379;51.034;7.006;2023-10-13T06:30:25;21.70;99.90
10662;DHT22;5379;51.034;7.006;2023-10-13T06:32:52;21.70;99.90
10662;DHT22;5379;51.034;7.006;2023-10-13T06:35:19;21.90;99.90
10662;DHT22;5379;51.034;7.006;2023-10-13T06:37:48;21.90;99.90
10662;DHT22;5379;51.034;7.006;2023-10-13T06:40:15;21.80;99.90
10662;DHT22;5379;51.034;7.006;2023-10-13T06:43:00;21.80;99.90
10662;DHT22;5379;51.034;7.006;2023-10-13T06:45:42;21.80;99.90
10662;DHT22;5379;51.034;7.006;2023-10-13T06:48:09;22.00;99.90
10662;DHT22;5379;51.034;7.006;2023-10-13T06:50:39;21.90;99.90
10662;DHT22;5379;51.034;7.006;2023-10-13T06:53:07;21.90;99.90
10662;DHT22;5379;51.034;7.006;2023-10-13T06:55:38;21.90;99.90
10662;DHT22;5379;51.034;7.006;2023-10-13T06:58:07;21.90;99.90
10662;DHT22;5379;51.034;7.006;2023-10-13T07:00:39;22.00;99.90
10662;DHT22;5379;51.034;7.006;2023-10-13T07:03:06;22.10;99.90
10662;DHT22;5379;51.034;7.006;2023-10-13T07:05:36;22.10;99.90
10662;DHT22;5379;51.034;7.006;2023-10-13T07:08:04;22.10;99.90
10662;DHT22;5379;51.034;7.006;2023-10-13T07:10:31;22.20;99.90
10662;DHT22;5379;51.034;7.006;2023-10-13T07:13:11;22.20;99.90
10662;DHT22;5379;51.034;7.006;2023-10-13T07:15:39;22.20;99.90
10662;DHT22;5379;51.034;7.006;2023-10-13T07:18:11;22.20;99.90
10662;DHT22;5379;51.034;7.006;2023-10-13T07:20:39;21.90;99.90
10662;DHT22;5379;51.034;7.006;2023-10-13T07:23:09;21.90;99.90
10662;DHT22;5379;51.034;7.006;2023-10-13T07:25:37;21.90;99.90
10662;DHT22;5379;51.034;7.006;2023-10-13T07:28:07;22.00;99.90
10662;DHT22;5379;51.034;7.006;2023-10-13T07:30:36;21.90;99.90
10662;DHT22;5379;51.034;7.006;2023-10-13T07:33:07;21.90;99.90
10662;DHT22;5379;51.034;7.006;2023-10-13T07:35:38;22.00;99.90
10662;DHT22;5379;51.034;7.006;2023-10-13T07:38:07;22.10;99.90
10662;DHT22;5379;51.034;7.006;2023-10-13T07:40:34;22.10;99.90
10662;DHT22;5379;51.034;7.006;2023-10-13T07:43:07;22.20;99.90
10662;DHT22;5379;51.034;7.006;2023-10-13T07:45:38;22.20;99.90
10662;DHT22;5379;51.034;7.006;2023-10-13T07:48:07;22.20;99.90
10662;DHT22;5379;51.034;7.006;2023-10-13T07:50:44;22.20;99.90
10662;DHT22;5379;51.034;7.006;2023-10-13T07:53:11;22.30;99.90
10662;DHT22;5379;51.034;7.006;2023-10-13T07:55:48;22.40;99.90
10662;DHT22;5379;51.034;7.006;2023-10-13T07:58:20;22.40;99.90
10662;DHT22;5379;51.034;7.006;2023-10-13T08:00:51;22.40;99.90
10662;DHT22;5379;51.034;7.006;2023-10-13T08:03:32;22.60;99.90
10662;DHT22;5379;51.034;7.006;2023-10-13T08:06:00;22.70;99.90
10662;DHT22;5379;51.034;7.006;2023-10-13T08:08:32;22.70;99.90
10662;DHT22;5379;51.034;7.006;2023-10-13T08:11:04;22.80;99.90
10662;DHT22;5379;51.034;7.006;2023-10-13T08:13:37;23.10;99.90
10662;DHT22;5379;51.034;7.006;2023-10-13T08:16:07;23.00;99.90
10662;DHT22;5379;51.034;7.006;2023-10-13T08:18:35;23.10;99.90
10662;DHT22;5379;51.034;7.006;2023-10-13T08:21:07;23.20;99.90
10662;DHT22;5379;51.034;7.006;2023-10-13T08:23:41;23.20;99.90
10662;DHT22;5379;51.034;7.006;2023-10-13T08:26:28;23.30;99.90
10662;DHT22;5379;51.034;7.006;2023-10-13T08:29:16;23.30;99.90
10662;DHT22;5379;51.034;7.006;2023-10-13T08:37:34;23.40;99.90
10662;DHT22;5379;51.034;7.006;2023-10-13T08:40:05;23.40;99.90
10662;DHT22;5379;51.034;7.006;2023-10-13T08:43:00;23.50;99.90
10662;DHT22;5379;51.034;7.006;2023-10-13T08:45:38;23.50;99.90
10662;DHT22;5379;51.034;7.006;2023-10-13T08:48:24;23.60;99.90
10662;DHT22;5379;51.034;7.006;2023-10-13T08:50:57;23.70;99.90
10662;DHT22;5379;51.034;7.006;2023-10-13T08:53:31;23.80;99.90
10662;DHT22;5379;51.034;7.006;2023-10-13T08:55:59;23.80;99.90
10662;DHT22;5379;51.034;7.006;2023-10-13T08:58:42;23.80;99.90
10662;DHT22;5379;51.034;7.006;2023-10-13T09:01:28;23.80;99.90
10662;DHT22;5379;51.034;7.006;2023-10-13T09:04:04;23.90;99.90
10662;DHT22;5379;51.034;7.006;2023-10-13T09:09:44;24.30;99.90
10662;DHT22;5379;51.034;7.006;2023-10-13T09:12:41;24.30;99.90
10662;DHT22;5379;51.034;7.006;2023-10-13T09:15:30;24.10;99.90
10662;DHT22;5379;51.034;7.006;2023-10-13T09:20:41;24.30;99.90
10662;DHT22;5379;51.034;7.006;2023-10-13T09:23:12;24.40;99.90
10662;DHT22;5379;51.034;7.006;2023-10-13T09:25:39;24.40;99.90
10662;DHT22;5379;51.034;7.006;2023-10-13T09:30:49;24.60;99.90
10662;DHT22;5379;51.034;7.006;2023-10-13T09:33:20;24.40;99.90
10662;DHT22;5379;51.034;7.006;2023-10-13T09:35:54;24.40;99.90
10662;DHT22;5379;51.034;7.006;2023-10-13T09:40:51;24.60;99.90
10662;DHT22;5379;51.034;7.006;2023-10-13T09:45:57;24.60;99.90
10662;DHT22;5379;51.034;7.006;2023-10-13T09:48:32;24.70;99.90
10662;DHT22;5379;51.034;7.006;2023-10-13T09:51:01;24.40;99.90
10662;DHT22;5379;51.034;7.006;2023-10-13T09:53:31;24.40;99.90
10662;DHT22;5379;51.034;7.006;2023-10-13T09:56:02;24.60;99.90
10662;DHT22;5379;51.034;7.006;2023-10-13T09:58:41;24.60;99.90
10662;DHT22;5379;51.034;7.006;2023-10-13T10:01:14;24.60;99.90
10662;DHT22;5379;51.034;7.006;2023-10-13T10:03:47;24.70;99.90
10662;DHT22;5379;51.034;7.006;2023-10-13T10:06:21;24.70;99.90
10662;DHT22;5379;51.034;7.006;2023-10-13T10:09:04;24.70;99.90
10662;DHT22;5379;51.034;7.006;2023-10-13T10:11:57;24.60;99.90
10662;DHT22;5379;51.034;7.006;2023-10-13T10:17:22;24.20;99.90
10662;DHT22;5379;51.034;7.006;2023-10-13T10:19:55;24.20;99.90
10662;DHT22;5379;51.034;7.006;2023-10-13T10:22:27;24.20;99.90
10662;DHT22;5379;51.034;7.006;2023-10-13T10:24:56;23.70;99.90
10662;DHT22;5379;51.034;7.006;2023-10-13T10:27:25;23.50;99.90
10662;DHT22;5379;51.034;7.006;2023-10-13T10:29:55;23.80;99.90
10662;DHT22;5379;51.034;7.006;2023-10-13T10:32:32;24.10;99.90
10662;DHT22;5379;51.034;7.006;2023-10-13T10:35:04;24.10;99.90
10662;DHT22;5379;51.034;7.006;2023-10-13T10:37:40;24.10;99.90
10662;DHT22;5379;51.034;7.006;2023-10-13T10:40:13;24.40;99.90
10662;DHT22;5379;51.034;7.006;2023-10-13T10:42:57;24.90;99.90
10662;DHT22;5379;51.034;7.006;2023-10-13T10:47:59;24.60;99.90
10662;DHT22;5379;51.034;7.006;2023-10-13T10:50:42;24.90;99.90
10662;DHT22;5379;51.034;7.006;2023-10-13T10:53:09;25.30;99.90
10662;DHT22;5379;51.034;7.006;2023-10-13T10:55:36;25.20;99.90
10662;DHT22;5379;51.034;7.006;2023-10-13T10:58:04;24.90;99.90
10662;DHT22;5379;51.034;7.006;2023-10-13T11:00:32;24.80;99.90
10662;DHT22;5379;51.034;7.006;2023-10-13T11:03:12;24.20;99.90
10662;DHT22;5379;51.034;7.006;2023-10-13T11:05:43;24.10;99.90
10662;DHT22;5379;51.034;7.006;2023-10-13T11:08:21;23.90;99.90
10662;DHT22;5379;51.034;7.006;2023-10-13T11:10:57;23.70;99.90
10662;DHT22;5379;51.034;7.006;2023-10-13T11:15:56;24.10;99.90
10662;DHT22;5379;51.034;7.006;2023-10-13T11:18:30;24.70;99.90
10662;DHT22;5379;51.034;7.006;2023-10-13T11:21:04;24.70;99.90
10662;DHT22;5379;51.034;7.006;2023-10-13T11:23:32;24.90;99.90
10662;DHT22;5379;51.034;7.006;2023-10-13T11:26:02;25.00;99.90
10662;DHT22;5379;51.034;7.006;2023-10-13T11:28:32;24.80;99.90
10662;DHT22;5379;51.034;7.006;2023-10-13T11:31:00;24.80;99.90
10662;DHT22;5379;51.034;7.006;2023-10-13T11:33:43;24.30;99.90
10662;DHT22;5379;51.034;7.006;2023-10-13T11:36:12;24.20;99.90
10662;DHT22;5379;51.034;7.006;2023-10-13T11:38:43;23.90;99.90
10662;DHT22;5379;51.034;7.006;2023-10-13T11:41:15;24.20;99.90
10662;DHT22;5379;51.034;7.006;2023-10-13T11:43:44;24.20;99.90
10662;DHT22;5379;51.034;7.006;2023-10-13T11:46:29;24.50;99.90
10662;DHT22;5379;51.034;7.006;2023-10-13T11:49:11;24.70;99.90
10662;DHT22;5379;51.034;7.006;2023-10-13T11:51:45;25.00;99.90
10662;DHT22;5379;51.034;7.006;2023-10-13T11:54:12;25.40;99.90
10662;DHT22;5379;51.034;7.006;2023-10-13T11:56:40;25.50;99.90
10662;DHT22;5379;51.034;7.006;2023-10-13T11:59:18;25.60;99.90
10662;DHT22;5379;51.034;7.006;2023-10-13T12:01:52;25.70;99.90
10662;DHT22;5379;51.034;7.006;2023-10-13T12:04:46;25.50;99.90
10662;DHT22;5379;51.034;7.006;2023-10-13T12:07:17;25.30;99.90
10662;DHT22;5379;51.034;7.006;2023-10-13T12:09:46;25.50;99.90
10662;DHT22;5379;51.034;7.006;2023-10-13T12:12:29;25.30;99.90
10662;DHT22;5379;51.034;7.006;2023-10-13T12:14:57;25.50;99.90
10662;DHT22;5379;51.034;7.006;2023-10-13T12:17:34;25.30;99.90
10662;DHT22;5379;51.034;7.006;2023-10-13T12:20:04;25.20;99.90
10662;DHT22;5379;51.034;7.006;2023-10-13T12:22:31;25.20;99.90
10662;DHT22;5379;51.034;7.006;2023-10-13T12:25:05;25.30;99.90
10662;DHT22;5379;51.034;7.006;2023-10-13T12:27:44;25.20;99.90
10662;DHT22;5379;51.034;7.006;2023-10-13T12:30:14;25.20;99.90
10662;DHT22;5379;51.034;7.006;2023-10-13T12:32:48;25.40;99.90
10662;DHT22;5379;51.034;7.006;2023-10-13T12:35:25;25.50;99.90
10662;DHT22;5379;51.034;7.006;2023-10-13T12:38:00;25.50;99.90
10662;DHT22;5379;51.034;7.006;2023-10-13T12:40:31;25.30;99.90
10662;DHT22;5379;51.034;7.006;2023-10-13T12:46:00;25.50;99.90
10662;DHT22;5379;51.034;7.006;2023-10-13T12:48:44;25.60;99.90
10662;DHT22;5379;51.034;7.006;2023-10-13T12:51:31;25.50;99.90
10662;DHT22;5379;51.034;7.006;2023-10-13T12:54:16;25.10;99.90
10662;DHT22;5379;51.034;7.006;2023-10-13T12:56:45;25.10;99.90
10662;DHT22;5379;51.034;7.006;2023-10-13T12:59:12;24.90;99.90
10662;DHT22;5379;51.034;7.006;2023-10-13T13:01:40;24.80;99.90
10662;DHT22;5379;51.034;7.006;2023-10-13T13:04:08;24.70;99.90
10662;DHT22;5379;51.034;7.006;2023-10-13T13:06:45;24.40;99.90
10662;DHT22;5379;51.034;7.006;2023-10-13T13:11:39;24.40;99.90
10662;DHT22;5379;51.034;7.006;2023-10-13T13:14:06;24.60;99.90
10662;DHT22;5379;51.034;7.006;2023-10-13T13:16:34;24.60;99.90
10662;DHT22;5379;51.034;7.006;2023-10-13T13:19:04;24.90;99.90
10662;DHT22;5379;51.034;7.006;2023-10-13T13:21:36;25.00;99.90
10662;DHT22;5379;51.034;7.006;2023-10-13T13:24:05;25.00;99.90
10662;DHT22;5379;51.034;7.006;2023-10-13T13:26:37;25.20;99.90
10662;DHT22;5379;51.034;7.006;2023-10-13T13:29:06;25.50;99.90
10662;DHT22;5379;51.034;7.006;2023-10-13T13:31:35;25.20;99.90
10662;DHT22;5379;51.034;7.006;2023-10-13T13:34:07;25.30;99.90
10662;DHT22;5379;51.034;7.006;2023-10-13T13:36:35;25.20;99.90
10662;DHT22;5379;51.034;7.006;2023-10-13T13:39:03;25.30;99.90
10662;DHT22;5379;51.034;7.006;2023-10-13T13:41:31;25.10;99.90
10662;DHT22;5379;51.034;7.006;2023-10-13T13:43:59;25.10;99.90
10662;DHT22;5379;51.034;7.006;2023-10-13T13:46:38;25.10;99.90
10662;DHT22;5379;51.034;7.006;2023-10-13T13:49:08;25.30;99.90
10662;DHT22;5379;51.034;7.006;2023-10-13T13:51:43;25.30;99.90
10662;DHT22;5379;51.034;7.006;2023-10-13T13:54:18;25.60;99.90
10662;DHT22;5379;51.034;7.006;2023-10-13T13:56:46;25.00;99.90
10662;DHT22;5379;51.034;7.006;2023-10-13T13:59:13;24.90;99.90
10662;DHT22;5379;51.034;7.006;2023-10-13T14:01:45;24.90;99.90
10662;DHT22;5379;51.034;7.006;2023-10-13T14:04:12;24.90;99.90
10662;DHT22;5379;51.034;7.006;2023-10-13T14:06:43;25.20;99.90
10662;DHT22;5379;51.034;7.006;2023-10-13T14:09:10;25.00;99.90
10662;DHT22;5379;51.034;7.006;2023-10-13T14:11:42;25.00;99.90
10662;DHT22;5379;51.034;7.006;2023-10-13T14:14:27;25.10;99.90
10662;DHT22;5379;51.034;7.006;2023-10-13T14:16:59;25.00;99.90
10662;DHT22;5379;51.034;7.006;2023-10-13T14:19:34;25.20;99.90
10662;DHT22;5379;51.034;7.006;2023-10-13T14:22:05;25.40;99.90
10662;DHT22;5379;51.034;7.006;2023-10-13T14:24:34;25.60;99.90
10662;DHT22;5379;51.034;7.006;2023-10-13T14:27:10;25.80;99.90
10662;DHT22;5379;51.034;7.006;2023-10-13T14:29:41;25.50;99.90
10662;DHT22;5379;51.034;7.006;2023-10-13T14:32:08;25.60;99.90
10662;DHT22;5379;51.034;7.006;2023-10-13T14:34:39;25.60;99.90
10662;DHT22;5379;51.034;7.006;2023-10-13T14:37:06;25.60;99.90
10662;DHT22;5379;51.034;7.006;2023-10-13T14:39:33;25.70;99.90
10662;DHT22;5379;51.034;7.006;2023-10-13T14:42:02;25.60;99.90
10662;DHT22;5379;51.034;7.006;2023-10-13T14:44:32;25.50;99.90
10662;DHT22;5379;51.034;7.006;2023-10-13T14:47:00;25.50;99.90
10662;DHT22;5379;51.034;7.006;2023-10-13T14:49:27;25.50;99.90
10662;DHT22;5379;51.034;7.006;2023-10-13T14:51:54;25.70;99.90
10662;DHT22;5379;51.034;7.006;2023-10-13T14:54:22;25.60;99.90
10662;DHT22;5379;51.034;7.006;2023-10-13T14:56:59;25.40;99.90
10662;DHT22;5379;51.034;7.006;2023-10-13T14:59:26;25.80;99.90
10662;DHT22;5379;51.034;7.006;2023-10-13T15:02:00;25.00;99.90
10662;DHT22;5379;51.034;7.006;2023-10-13T15:04:28;25.20;99.90
10662;DHT22;5379;51.034;7.006;2023-10-13T15:06:58;24.90;99.90
10662;DHT22;5379;51.034;7.006;2023-10-13T15:09:27;25.00;99.90
10662;DHT22;5379;51.034;7.006;2023-10-13T15:11:55;25.10;99.90
10662;DHT22;5379;51.034;7.006;2023-10-13T15:16:50;25.50;99.90
10662;DHT22;5379;51.034;7.006;2023-10-13T15:19:20;25.50;99.90
10662;DHT22;5379;51.034;7.006;2023-10-13T15:21:47;25.50;99.90
10662;DHT22;5379;51.034;7.006;2023-10-13T15:26:43;25.80;99.90
10662;DHT22;5379;51.034;7.006;2023-10-13T15:29:14;25.60;99.90
10662;DHT22;5379;51.034;7.006;2023-10-13T15:31:42;25.70;99.90
10662;DHT22;5379;51.034;7.006;2023-10-13T15:34:21;25.70;99.90
10662;DHT22;5379;51.034;7.006;2023-10-13T15:36:49;25.80;99.90
10662;DHT22;5379;51.034;7.006;2023-10-13T15:39:18;25.80;99.90
10662;DHT22;5379;51.034;7.006;2023-10-13T15:41:49;25.80;99.90
10662;DHT22;5379;51.034;7.006;2023-10-13T15:44:18;26.00;99.90
10662;DHT22;5379;51.034;7.006;2023-10-13T15:46:46;26.00;99.90
10662;DHT22;5379;51.034;7.006;2023-10-13T15:49:15;26.00;99.90
10662;DHT22;5379;51.034;7.006;2023-10-13T15:51:43;25.90;99.90
10662;DHT22;5379;51.034;7.006;2023-10-13T15:54:10;26.10;99.90
10662;DHT22;5379;51.034;7.006;2023-10-13T15:56:42;25.70;99.90
10662;DHT22;5379;51.034;7.006;2023-10-13T15:59:09;25.80;99.90
10662;DHT22;5379;51.034;7.006;2023-10-13T16:01:35;25.90;99.90
10662;DHT22;5379;51.034;7.006;2023-10-13T16:04:05;26.10;99.90
10662;DHT22;5379;51.034;7.006;2023-10-13T16:06:36;26.20;99.90
10662;DHT22;5379;51.034;7.006;2023-10-13T16:09:05;26.20;99.90
10662;DHT22;5379;51.034;7.006;2023-10-13T16:11:40;26.30;99.90
10662;DHT22;5379;51.034;7.006;2023-10-13T16:14:08;26.30;99.90
10662;DHT22;5379;51.034;7.006;2023-10-13T16:16:36;26.30;99.90
10662;DHT22;5379;51.034;7.006;2023-10-13T16:19:03;26.10;99.90
10662;DHT22;5379;51.034;7.006;2023-10-13T16:23:59;26.40;99.90
10662;DHT22;5379;51.034;7.006;2023-10-13T16:26:27;26.30;99.90
10662;DHT22;5379;51.034;7.006;2023-10-13T16:28:56;26.30;99.90
10662;DHT22;5379;51.034;7.006;2023-10-13T16:31:25;26.50;99.90
10662;DHT22;5379;51.034;7.006;2023-10-13T16:33:53;26.50;99.90
10662;DHT22;5379;51.034;7.006;2023-10-13T16:38:48;26.40;99.90
10662;DHT22;5379;51.034;7.006;2023-10-13T16:41:15;26.30;99.90
10662;DHT22;5379;51.034;7.006;2023-10-13T16:43:44;26.40;99.90
10662;DHT22;5379;51.034;7.006;2023-10-13T16:46:12;26.40;99.90
10662;DHT22;5379;51.034;7.006;2023-10-13T16:48:41;26.30;99.90
10662;DHT22;5379;51.034;7.006;2023-10-13T16:51:09;26.40;99.90
10662;DHT22;5379;51.034;7.006;2023-10-13T16:53:38;26.30;99.90
10662;DHT22;5379;51.034;7.006;2023-10-13T16:56:05;26.30;99.90
10662;DHT22;5379;51.034;7.006;2023-10-13T16:58:33;26.30;99.90
10662;DHT22;5379;51.034;7.006;2023-10-13T17:01:01;26.40;99.90
10662;DHT22;5379;51.034;7.006;2023-10-13T17:03:30;26.20;99.90
10662;DHT22;5379;51.034;7.006;2023-10-13T17:05:57;26.30;99.90
10662;DHT22;5379;51.034;7.006;2023-10-13T17:08:26;26.10;99.90
10662;DHT22;5379;51.034;7.006;2023-10-13T17:10:54;26.00;99.90
10662;DHT22;5379;51.034;7.006;2023-10-13T17:13:21;26.00;99.90
10662;DHT22;5379;51.034;7.006;2023-10-13T17:15:51;26.00;99.90
10662;DHT22;5379;51.034;7.006;2023-10-13T17:20:46;25.90;99.90
10662;DHT22;5379;51.034;7.006;2023-10-13T17:23:13;26.10;99.90
10662;DHT22;5379;51.034;7.006;2023-10-13T17:33:07;26.30;99.90
10662;DHT22;5379;51.034;7.006;2023-10-13T17:35:38;26.50;99.90
10662;DHT22;5379;51.034;7.006;2023-10-13T17:38:06;26.50;99.90
10662;DHT22;5379;51.034;7.006;2023-10-13T17:40:33;26.50;99.90
10662;DHT22;5379;51.034;7.006;2023-10-13T17:43:00;26.30;99.90
10662;DHT22;5379;51.034;7.006;2023-10-13T17:45:27;26.10;99.90
10662;DHT22;5379;51.034;7.006;2023-10-13T17:47:54;26.10;99.90
10662;DHT22;5379;51.034;7.006;2023-10-13T17:50:22;26.10;99.90
10662;DHT22;5379;51.034;7.006;2023-10-13T17:52:50;26.20;99.90
10662;DHT22;5379;51.034;7.006;2023-10-13T17:55:17;26.20;99.90
10662;DHT22;5379;51.034;7.006;2023-10-13T17:57:43;26.20;99.90
10662;DHT22;5379;51.034;7.006;2023-10-13T18:00:12;26.20;99.90
10662;DHT22;5379;51.034;7.006;2023-10-13T18:02:41;26.30;99.90
10662;DHT22;5379;51.034;7.006;2023-10-13T18:05:08;26.10;99.90
10662;DHT22;5379;51.034;7.006;2023-10-13T18:10:05;26.00;99.90
10662;DHT22;5379;51.034;7.006;2023-10-13T18:12:35;26.20;99.90
10662;DHT22;5379;51.034;7.006;2023-10-13T18:15:02;26.10;99.90
10662;DHT22;5379;51.034;7.006;2023-10-13T18:17:30;26.20;99.90
10662;DHT22;5379;51.034;7.006;2023-10-13T18:19:57;26.30;99.90
10662;DHT22;5379;51.034;7.006;2023-10-13T18:22:24;26.30;99.90
10662;DHT22;5379;51.034;7.006;2023-10-13T18:29:49;26.30;99.90
10662;DHT22;5379;51.034;7.006;2023-10-13T18:32:16;26.20;99.90
10662;DHT22;5379;51.034;7.006;2023-10-13T18:34:45;26.10;99.90
10662;DHT22;5379;51.034;7.006;2023-10-13T18:37:13;26.20;99.90
10662;DHT22;5379;51.034;7.006;2023-10-13T18:39:40;26.10;99.90
10662;DHT22;5379;51.034;7.006;2023-10-13T18:42:07;26.10;99.90
10662;DHT22;5379;51.034;7.006;2023-10-13T18:44:35;25.80;99.90
10662;DHT22;5379;51.034;7.006;2023-10-13T18:47:02;25.70;99.90
10662;DHT22;5379;51.034;7.006;2023-10-13T18:49:30;25.70;99.90
10662;DHT22;5379;51.034;7.006;2023-10-13T18:51:58;25.70;99.90
10662;DHT22;5379;51.034;7.006;2023-10-13T18:54:25;25.60;99.90
10662;DHT22;5379;51.034;7.006;2023-10-13T18:56:51;25.70;99.90
10662;DHT22;5379;51.034;7.006;2023-10-13T18:59:19;25.80;99.90
10662;DHT22;5379;51.034;7.006;2023-10-13T19:01:48;25.70;99.90
10662;DHT22;5379;51.034;7.006;2023-10-13T19:04:14;25.60;99.90
10662;DHT22;5379;51.034;7.006;2023-10-13T19:06:41;25.70;99.90
10662;DHT22;5379;51.034;7.006;2023-10-13T19:09:09;25.70;99.90
10662;DHT22;5379;51.034;7.006;2023-10-13T19:11:37;25.70;99.90
10662;DHT22;5379;51.034;7.006;2023-10-13T19:14:06;25.90;99.90
10662;DHT22;5379;51.034;7.006;2023-10-13T19:16:35;25.80;99.90
10662;DHT22;5379;51.034;7.006;2023-10-13T19:19:04;25.80;99.90
10662;DHT22;5379;51.034;7.006;2023-10-13T19:21:31;25.40;99.90
10662;DHT22;5379;51.034;7.006;2023-10-13T19:24:02;25.40;99.90
10662;DHT22;5379;51.034;7.006;2023-10-13T19:26:29;25.20;99.90
10662;DHT22;5379;51.034;7.006;2023-10-13T19:28:57;25.30;99.90
10662;DHT22;5379;51.034;7.006;2023-10-13T19:31:26;25.30;99.90
10662;DHT22;5379;51.034;7.006;2023-10-13T19:33:55;25.50;99.90
10662;DHT22;5379;51.034;7.006;2023-10-13T19:36:24;25.30;99.90
10662;DHT22;5379;51.034;7.006;2023-10-13T19:38:52;25.40;99.90
10662;DHT22;5379;51.034;7.006;2023-10-13T19:41:20;25.40;99.90
10662;DHT22;5379;51.034;7.006;2023-10-13T19:43:51;25.30;99.90
10662;DHT22;5379;51.034;7.006;2023-10-13T19:46:22;25.30;99.90
10662;DHT22;5379;51.034;7.006;2023-10-13T19:48:50;25.30;99.90
10662;DHT22;5379;51.034;7.006;2023-10-13T19:51:17;25.50;99.90
10662;DHT22;5379;51.034;7.006;2023-10-13T19:53:53;25.50;99.90
10662;DHT22;5379;51.034;7.006;2023-10-13T19:56:20;25.30;99.90
10662;DHT22;5379;51.034;7.006;2023-10-13T19:58:48;25.50;99.90
10662;DHT22;5379;51.034;7.006;2023-10-13T20:01:17;25.50;99.90
10662;DHT22;5379;51.034;7.006;2023-10-13T20:03:45;25.50;99.90
10662;DHT22;5379;51.034;7.006;2023-10-13T20:06:12;25.70;99.90
10662;DHT22;5379;51.034;7.006;2023-10-13T20:08:45;25.70;99.90
10662;DHT22;5379;51.034;7.006;2023-10-13T20:11:16;25.30;99.90
10662;DHT22;5379;51.034;7.006;2023-10-13T20:13:43;25.20;99.90
10662;DHT22;5379;51.034;7.006;2023-10-13T20:16:12;25.20;99.90
10662;DHT22;5379;51.034;7.006;2023-10-13T20:18:45;25.00;99.90
10662;DHT22;5379;51.034;7.006;2023-10-13T20:21:12;24.90;99.90
10662;DHT22;5379;51.034;7.006;2023-10-13T20:23:40;24.80;99.90
10662;DHT22;5379;51.034;7.006;2023-10-13T20:26:08;24.40;99.90
10662;DHT22;5379;51.034;7.006;2023-10-13T20:28:36;24.40;99.90
10662;DHT22;5379;51.034;7.006;2023-10-13T20:33:32;24.00;99.90
10662;DHT22;5379;51.034;7.006;2023-10-13T20:36:00;24.20;99.90
10662;DHT22;5379;51.034;7.006;2023-10-13T20:38:30;24.20;99.90
10662;DHT22;5379;51.034;7.006;2023-10-13T20:40:57;23.90;99.90
10662;DHT22;5379;51.034;7.006;2023-10-13T20:43:26;23.70;99.90
10662;DHT22;5379;51.034;7.006;2023-10-13T20:45:55;23.60;99.90
10662;DHT22;5379;51.034;7.006;2023-10-13T20:48:24;23.90;99.90
10662;DHT22;5379;51.034;7.006;2023-10-13T20:50:56;24.00;99.90
10662;DHT22;5379;51.034;7.006;2023-10-13T20:53:24;23.60;99.90
10662;DHT22;5379;51.034;7.006;2023-10-13T20:55:58;23.60;99.90
10662;DHT22;5379;51.034;7.006;2023-10-13T20:58:25;23.50;99.90
10662;DHT22;5379;51.034;7.006;2023-10-13T21:00:52;23.50;99.90
10662;DHT22;5379;51.034;7.006;2023-10-13T21:03:21;22.80;99.90
10662;DHT22;5379;51.034;7.006;2023-10-13T21:05:48;23.30;99.90
10662;DHT22;5379;51.034;7.006;2023-10-13T21:08:15;23.70;99.90
10662;DHT22;5379;51.034;7.006;2023-10-13T21:10:42;23.90;99.90
10662;DHT22;5379;51.034;7.006;2023-10-13T21:13:10;24.00;99.90
10662;DHT22;5379;51.034;7.006;2023-10-13T21:15:37;24.10;99.90
10662;DHT22;5379;51.034;7.006;2023-10-13T21:18:04;24.00;99.90
10662;DHT22;5379;51.034;7.006;2023-10-13T21:20:34;23.80;99.90
10662;DHT22;5379;51.034;7.006;2023-10-13T21:23:01;23.80;99.90
10662;DHT22;5379;51.034;7.006;2023-10-13T21:25:27;24.30;99.90
10662;DHT22;5379;51.034;7.006;2023-10-13T21:27:56;24.00;99.90
10662;DHT22;5379;51.034;7.006;2023-10-13T21:30:27;24.00;99.90
10662;DHT22;5379;51.034;7.006;2023-10-13T21:32:54;24.00;99.90
10662;DHT22;5379;51.034;7.006;2023-10-13T21:35:24;24.90;99.90
10662;DHT22;5379;51.034;7.006;2023-10-13T21:37:53;23.90;99.90
10662;DHT22;5379;51.034;7.006;2023-10-13T21:40:22;23.80;99.90
10662;DHT22;5379;51.034;7.006;2023-10-13T21:42:49;23.80;99.90
10662;DHT22;5379;51.034;7.006;2023-10-13T21:45:17;23.80;99.90
10662;DHT22;5379;51.034;7.006;2023-10-13T21:47:46;23.80;99.90
10662;DHT22;5379;51.034;7.006;2023-10-13T21:52:43;23.70;99.90